RYR7WK EGHH-LEPA
Flight info
| Callsign | RYR7WK |
|---|---|
| Flight time | 1h 50m |
| Altitude | 35000 |
| Route | SAM Y8 GWC UN859 SOPIL DCT BALAN DCT EVPOK DCT NARAK DCT GAI DCT LOMRA DCT ROCAN DCT IBRAP N13 LORES |
| Aircraft | B738/M-SDE2E3FGHIRWXY/LB1 |
Departure
| Time | 2026-05-06 16:57 |
|---|---|
| Airport | Bournemouth Airport (EGHH) |
Arrival
| Time | 2026-05-06 18:47 |
|---|---|
| Airport | Palma de Mallorca Airport (LEPA) |
| Time | Latitude | Longitude | Altitude | Speed | Heading |
|---|---|---|---|---|---|
| 2026-05-06 16:37 | 50.78836 | -1.84814 | 46 ft | 0 kts | 345° |
| 2026-05-06 16:46 | 50.78834 | -1.84813 | 46 ft | 1 kts | 345° |
| 2026-05-06 16:46 | 50.78820 | -1.84807 | 46 ft | 3 kts | 345° |
| 2026-05-06 16:46 | 50.78801 | -1.84799 | 46 ft | 3 kts | 345° |
| 2026-05-06 16:47 | 50.78781 | -1.84791 | 46 ft | 3 kts | 345° |
| 2026-05-06 16:47 | 50.78761 | -1.84782 | 46 ft | 3 kts | 345° |
| 2026-05-06 16:47 | 50.78746 | -1.84776 | 46 ft | 0 kts | 345° |
| 2026-05-06 16:50 | 50.78758 | -1.84774 | 46 ft | 4 kts | 33° |
| 2026-05-06 16:50 | 50.78762 | -1.84676 | 46 ft | 14 kts | 77° |
| 2026-05-06 16:50 | 50.78786 | -1.84518 | 46 ft | 12 kts | 77° |
| 2026-05-06 16:50 | 50.78807 | -1.84367 | 46 ft | 17 kts | 78° |
| 2026-05-06 16:51 | 50.78835 | -1.84161 | 46 ft | 19 kts | 89° |
| 2026-05-06 16:51 | 50.78811 | -1.84051 | 46 ft | 6 kts | 201° |
| 2026-05-06 16:51 | 50.78751 | -1.84097 | 46 ft | 13 kts | 206° |
| 2026-05-06 16:51 | 50.78660 | -1.84121 | 46 ft | 15 kts | 172° |
| 2026-05-06 16:52 | 50.78544 | -1.84090 | 46 ft | 16 kts | 170° |
| 2026-05-06 16:52 | 50.78453 | -1.84056 | 46 ft | 13 kts | 168° |
| 2026-05-06 16:52 | 50.78405 | -1.84152 | 46 ft | 14 kts | 260° |
| 2026-05-06 16:52 | 50.78387 | -1.84324 | 46 ft | 16 kts | 260° |
| 2026-05-06 16:53 | 50.78363 | -1.84481 | 46 ft | 15 kts | 248° |
| 2026-05-06 16:53 | 50.78294 | -1.84632 | 46 ft | 19 kts | 217° |
| 2026-05-06 16:53 | 50.78179 | -1.84746 | 46 ft | 20 kts | 212° |
| 2026-05-06 16:53 | 50.78113 | -1.84940 | 46 ft | 20 kts | 253° |
| 2026-05-06 16:54 | 50.78044 | -1.85062 | 46 ft | 17 kts | 186° |
| 2026-05-06 16:54 | 50.77921 | -1.85095 | 46 ft | 17 kts | 195° |
| 2026-05-06 16:54 | 50.77849 | -1.85203 | 46 ft | 18 kts | 253° |
| 2026-05-06 16:54 | 50.77812 | -1.85429 | 46 ft | 21 kts | 256° |
| 2026-05-06 16:55 | 50.77781 | -1.85623 | 46 ft | 15 kts | 258° |
| 2026-05-06 16:55 | 50.77766 | -1.85717 | 46 ft | 5 kts | 169° |
| 2026-05-06 16:55 | 50.77767 | -1.85684 | 46 ft | 5 kts | 54° |
| 2026-05-06 16:55 | 50.77773 | -1.85660 | 46 ft | 1 kts | 75° |
| 2026-05-06 16:56 | 50.77794 | -1.85536 | 46 ft | 30 kts | 75° |
| 2026-05-06 16:56 | 50.77905 | -1.84874 | 46 ft | 93 kts | 75° |
| 2026-05-06 16:56 | 50.78119 | -1.83586 | 47 ft | 148 kts | 75° |
| 2026-05-06 16:56 | 50.78398 | -1.81900 | 479 ft | 160 kts | 74° |
| 2026-05-06 16:57 | 50.78673 | -1.80194 | 1207 ft | 161 kts | 73° |
| 2026-05-06 16:57 | 50.79108 | -1.78548 | 1749 ft | 173 kts | 56° |
| 2026-05-06 16:57 | 50.79810 | -1.76878 | 2184 ft | 194 kts | 55° |
| 2026-05-06 16:57 | 50.80604 | -1.74977 | 2495 ft | 221 kts | 57° |
| 2026-05-06 16:58 | 50.81454 | -1.72836 | 3046 ft | 235 kts | 58° |
| 2026-05-06 16:58 | 50.82323 | -1.70560 | 3703 ft | 249 kts | 59° |
| 2026-05-06 16:58 | 50.83227 | -1.68155 | 4437 ft | 258 kts | 59° |
| 2026-05-06 16:58 | 50.84146 | -1.65686 | 5261 ft | 263 kts | 59° |
| 2026-05-06 16:59 | 50.85075 | -1.63174 | 6084 ft | 267 kts | 59° |
| 2026-05-06 16:59 | 50.86005 | -1.60648 | 6890 ft | 271 kts | 59° |
| 2026-05-06 16:59 | 50.86957 | -1.58047 | 7696 ft | 275 kts | 59° |
| 2026-05-06 16:59 | 50.87922 | -1.55403 | 8483 ft | 279 kts | 59° |
| 2026-05-06 17:00 | 50.88900 | -1.52718 | 9257 ft | 284 kts | 59° |
| 2026-05-06 17:00 | 50.89891 | -1.49992 | 10015 ft | 288 kts | 59° |
| 2026-05-06 17:00 | 50.90898 | -1.47216 | 10711 ft | 294 kts | 58° |
| 2026-05-06 17:00 | 50.91923 | -1.44388 | 11239 ft | 307 kts | 58° |
| 2026-05-06 17:01 | 50.93014 | -1.41373 | 11570 ft | 326 kts | 58° |
| 2026-05-06 17:01 | 50.94157 | -1.38146 | 11844 ft | 346 kts | 63° |
| 2026-05-06 17:01 | 50.94857 | -1.34392 | 12092 ft | 367 kts | 81° |
| 2026-05-06 17:01 | 50.94844 | -1.30250 | 12360 ft | 385 kts | 95° |
| 2026-05-06 17:02 | 50.94344 | -1.26017 | 12829 ft | 395 kts | 103° |
| 2026-05-06 17:02 | 50.93618 | -1.21787 | 13468 ft | 400 kts | 105° |
| 2026-05-06 17:02 | 50.92831 | -1.17534 | 14084 ft | 404 kts | 106° |
| 2026-05-06 17:02 | 50.92051 | -1.13231 | 14723 ft | 408 kts | 105° |
| 2026-05-06 17:03 | 50.91277 | -1.08886 | 15347 ft | 411 kts | 105° |
| 2026-05-06 17:03 | 50.90516 | -1.04562 | 15926 ft | 415 kts | 105° |
| 2026-05-06 17:03 | 50.89742 | -1.00135 | 16499 ft | 419 kts | 105° |
| 2026-05-06 17:03 | 50.88965 | -0.95672 | 17076 ft | 422 kts | 105° |
| 2026-05-06 17:04 | 50.88183 | -0.91173 | 17614 ft | 426 kts | 105° |
| 2026-05-06 17:04 | 50.87394 | -0.86627 | 18154 ft | 429 kts | 105° |
| 2026-05-06 17:04 | 50.86563 | -0.82071 | 18678 ft | 433 kts | 110° |
| 2026-05-06 17:04 | 50.85206 | -0.77820 | 19181 ft | 435 kts | 124° |
| 2026-05-06 17:05 | 50.83230 | -0.74199 | 19676 ft | 437 kts | 138° |
| 2026-05-06 17:05 | 50.80896 | -0.71212 | 20157 ft | 439 kts | 144° |
| 2026-05-06 17:05 | 50.78386 | -0.68445 | 20636 ft | 441 kts | 147° |
| 2026-05-06 17:05 | 50.75808 | -0.65799 | 21093 ft | 444 kts | 148° |
| 2026-05-06 17:06 | 50.73188 | -0.63159 | 21517 ft | 448 kts | 148° |
| 2026-05-06 17:06 | 50.70555 | -0.60507 | 21953 ft | 450 kts | 148° |
| 2026-05-06 17:06 | 50.67907 | -0.57841 | 22376 ft | 453 kts | 148° |
| 2026-05-06 17:06 | 50.65241 | -0.55158 | 22786 ft | 456 kts | 148° |
| 2026-05-06 17:07 | 50.62559 | -0.52459 | 23182 ft | 459 kts | 148° |
| 2026-05-06 17:07 | 50.59863 | -0.49749 | 23571 ft | 461 kts | 148° |
| 2026-05-06 17:07 | 50.57187 | -0.47062 | 23939 ft | 464 kts | 148° |
| 2026-05-06 17:07 | 50.54467 | -0.44307 | 24306 ft | 466 kts | 148° |
| 2026-05-06 17:08 | 50.51733 | -0.41541 | 24669 ft | 468 kts | 148° |
| 2026-05-06 17:08 | 50.48987 | -0.38771 | 25022 ft | 470 kts | 148° |
| 2026-05-06 17:08 | 50.46224 | -0.35993 | 25361 ft | 473 kts | 148° |
| 2026-05-06 17:08 | 50.43448 | -0.33207 | 25690 ft | 475 kts | 148° |
| 2026-05-06 17:09 | 50.40659 | -0.30415 | 26007 ft | 477 kts | 148° |
| 2026-05-06 17:09 | 50.37857 | -0.27614 | 26315 ft | 479 kts | 148° |
| 2026-05-06 17:09 | 50.35049 | -0.24790 | 26619 ft | 481 kts | 148° |
| 2026-05-06 17:09 | 50.32275 | -0.22012 | 27000 ft | 480 kts | 148° |
| 2026-05-06 17:10 | 50.29460 | -0.19207 | 27427 ft | 479 kts | 149° |
| 2026-05-06 17:10 | 50.26653 | -0.16423 | 27831 ft | 478 kts | 149° |
| 2026-05-06 17:10 | 50.23851 | -0.13649 | 28234 ft | 476 kts | 149° |
| 2026-05-06 17:10 | 50.21050 | -0.10884 | 28630 ft | 475 kts | 149° |
| 2026-05-06 17:11 | 50.18260 | -0.08132 | 29023 ft | 474 kts | 149° |
| 2026-05-06 17:11 | 50.15474 | -0.05387 | 29418 ft | 473 kts | 149° |
| 2026-05-06 17:11 | 50.12648 | -0.02765 | 29788 ft | 471 kts | 153° |
| 2026-05-06 17:11 | 50.09697 | -0.00571 | 30156 ft | 469 kts | 159° |
| 2026-05-06 17:12 | 50.06684 | 0.01141 | 30573 ft | 465 kts | 163° |
| 2026-05-06 17:12 | 50.03582 | 0.02534 | 30988 ft | 463 kts | 166° |
| 2026-05-06 17:12 | 50.00461 | 0.03769 | 31277 ft | 463 kts | 167° |
| 2026-05-06 17:12 | 49.97329 | 0.04999 | 31543 ft | 464 kts | 167° |
| 2026-05-06 17:13 | 49.94197 | 0.06228 | 31850 ft | 464 kts | 167° |
| 2026-05-06 17:13 | 49.91066 | 0.07452 | 32164 ft | 464 kts | 167° |
| 2026-05-06 17:13 | 49.87935 | 0.08673 | 32468 ft | 464 kts | 167° |
| 2026-05-06 17:13 | 49.84805 | 0.09893 | 32753 ft | 464 kts | 167° |
| 2026-05-06 17:14 | 49.81718 | 0.11094 | 33038 ft | 464 kts | 166° |
| 2026-05-06 17:14 | 49.78592 | 0.12308 | 33318 ft | 464 kts | 166° |
| 2026-05-06 17:14 | 49.75460 | 0.13524 | 33599 ft | 464 kts | 166° |
| 2026-05-06 17:14 | 49.72332 | 0.14737 | 33876 ft | 463 kts | 166° |
| 2026-05-06 17:15 | 49.69204 | 0.15948 | 34150 ft | 463 kts | 166° |
| 2026-05-06 17:15 | 49.66086 | 0.17189 | 34407 ft | 463 kts | 166° |
| 2026-05-06 17:15 | 49.62965 | 0.18455 | 34663 ft | 463 kts | 166° |
| 2026-05-06 17:15 | 49.59858 | 0.19725 | 34970 ft | 462 kts | 166° |
| 2026-05-06 17:16 | 49.56777 | 0.20979 | 34981 ft | 465 kts | 166° |
| 2026-05-06 17:16 | 49.50524 | 0.23507 | 34990 ft | 463 kts | 166° |
| 2026-05-06 17:17 | 49.44307 | 0.26008 | 34980 ft | 461 kts | 166° |
| 2026-05-06 17:17 | 49.38091 | 0.28501 | 34972 ft | 462 kts | 166° |
| 2026-05-06 17:18 | 49.31871 | 0.30990 | 34966 ft | 462 kts | 166° |
| 2026-05-06 17:18 | 49.25709 | 0.33557 | 34966 ft | 462 kts | 165° |
| 2026-05-06 17:19 | 49.19504 | 0.36164 | 34967 ft | 462 kts | 165° |
| 2026-05-06 17:19 | 49.13316 | 0.38755 | 34965 ft | 461 kts | 165° |
| 2026-05-06 17:20 | 49.07127 | 0.41358 | 34964 ft | 461 kts | 165° |
| 2026-05-06 17:20 | 49.00978 | 0.43935 | 34964 ft | 462 kts | 165° |
| 2026-05-06 17:21 | 48.94782 | 0.46513 | 34963 ft | 462 kts | 165° |
| 2026-05-06 17:21 | 48.88584 | 0.49081 | 34963 ft | 462 kts | 165° |
| 2026-05-06 17:22 | 48.82384 | 0.51643 | 34963 ft | 462 kts | 165° |
| 2026-05-06 17:22 | 48.76178 | 0.54159 | 34962 ft | 462 kts | 166° |
| 2026-05-06 17:23 | 48.69995 | 0.56577 | 34962 ft | 462 kts | 166° |
| 2026-05-06 17:23 | 48.63771 | 0.59003 | 34962 ft | 462 kts | 166° |
| 2026-05-06 17:24 | 48.57549 | 0.61422 | 34961 ft | 462 kts | 166° |
| 2026-05-06 17:24 | 48.51368 | 0.63830 | 34961 ft | 462 kts | 165° |
| 2026-05-06 17:25 | 48.45159 | 0.66368 | 34960 ft | 462 kts | 165° |
| 2026-05-06 17:25 | 48.38951 | 0.68888 | 34960 ft | 462 kts | 165° |
| 2026-05-06 17:26 | 48.32744 | 0.71397 | 34959 ft | 462 kts | 165° |
| 2026-05-06 17:26 | 48.26532 | 0.73902 | 34953 ft | 462 kts | 165° |
| 2026-05-06 17:27 | 48.20358 | 0.76347 | 34951 ft | 462 kts | 166° |
| 2026-05-06 17:27 | 48.14136 | 0.78796 | 34950 ft | 462 kts | 165° |
| 2026-05-06 17:28 | 48.07922 | 0.81251 | 34949 ft | 461 kts | 165° |
| 2026-05-06 17:28 | 48.01711 | 0.83685 | 34940 ft | 461 kts | 166° |
| 2026-05-06 17:29 | 47.95540 | 0.86093 | 34930 ft | 463 kts | 166° |
| 2026-05-06 17:29 | 47.89311 | 0.88518 | 34930 ft | 463 kts | 166° |
| 2026-05-06 17:30 | 47.83082 | 0.90937 | 34937 ft | 463 kts | 166° |
| 2026-05-06 17:30 | 47.76851 | 0.93346 | 34937 ft | 463 kts | 166° |
| 2026-05-06 17:31 | 47.70678 | 0.95741 | 34936 ft | 463 kts | 166° |
| 2026-05-06 17:31 | 47.64428 | 0.98156 | 34935 ft | 463 kts | 166° |
| 2026-05-06 17:32 | 47.58200 | 1.00549 | 34935 ft | 463 kts | 166° |
| 2026-05-06 17:32 | 47.51964 | 1.02936 | 34936 ft | 463 kts | 166° |
| 2026-05-06 17:33 | 47.45722 | 1.05250 | 34936 ft | 462 kts | 169° |
| 2026-05-06 17:33 | 47.39343 | 1.06311 | 34934 ft | 462 kts | 179° |
| 2026-05-06 17:34 | 47.32967 | 1.06219 | 34933 ft | 461 kts | 182° |
| 2026-05-06 17:34 | 47.26550 | 1.06047 | 34935 ft | 461 kts | 181° |
| 2026-05-06 17:35 | 47.20135 | 1.05894 | 34935 ft | 461 kts | 181° |
| 2026-05-06 17:35 | 47.13716 | 1.05748 | 34935 ft | 461 kts | 181° |
| 2026-05-06 17:36 | 47.04133 | 1.05534 | 34935 ft | 461 kts | 181° |
| 2026-05-06 17:36 | 46.97721 | 1.05303 | 34935 ft | 461 kts | 182° |
| 2026-05-06 17:37 | 46.91302 | 1.05017 | 34935 ft | 462 kts | 182° |
| 2026-05-06 17:37 | 46.84923 | 1.04737 | 34935 ft | 462 kts | 182° |
| 2026-05-06 17:38 | 46.78506 | 1.04456 | 34932 ft | 461 kts | 182° |
| 2026-05-06 17:38 | 46.72085 | 1.04178 | 34931 ft | 462 kts | 182° |
| 2026-05-06 17:39 | 46.65663 | 1.03902 | 34931 ft | 462 kts | 182° |
| 2026-05-06 17:39 | 46.59285 | 1.03629 | 34930 ft | 462 kts | 182° |
| 2026-05-06 17:40 | 46.52858 | 1.03564 | 34929 ft | 463 kts | 177° |
| 2026-05-06 17:40 | 46.46492 | 1.04944 | 34928 ft | 464 kts | 168° |
| 2026-05-06 17:41 | 46.40203 | 1.07057 | 34926 ft | 464 kts | 167° |
| 2026-05-06 17:41 | 46.33917 | 1.09174 | 34922 ft | 464 kts | 168° |
| 2026-05-06 17:42 | 46.27667 | 1.11262 | 34921 ft | 464 kts | 168° |
| 2026-05-06 17:42 | 46.21372 | 1.13353 | 34918 ft | 464 kts | 168° |
| 2026-05-06 17:43 | 46.15083 | 1.15445 | 34913 ft | 464 kts | 168° |
| 2026-05-06 17:43 | 46.08796 | 1.17534 | 34910 ft | 464 kts | 168° |
| 2026-05-06 17:44 | 46.02550 | 1.19600 | 34908 ft | 463 kts | 168° |
| 2026-05-06 17:44 | 45.96266 | 1.21672 | 34907 ft | 463 kts | 168° |
| 2026-05-06 17:45 | 45.89979 | 1.23737 | 34906 ft | 463 kts | 168° |
| 2026-05-06 17:45 | 45.83700 | 1.25794 | 34905 ft | 463 kts | 168° |
| 2026-05-06 17:46 | 45.77464 | 1.27838 | 34906 ft | 463 kts | 168° |
| 2026-05-06 17:46 | 45.71184 | 1.29894 | 34906 ft | 463 kts | 168° |
| 2026-05-06 17:47 | 45.64900 | 1.31937 | 34907 ft | 463 kts | 169° |
| 2026-05-06 17:47 | 45.58623 | 1.33972 | 34908 ft | 463 kts | 169° |
| 2026-05-06 17:48 | 45.52391 | 1.35987 | 34909 ft | 463 kts | 169° |
| 2026-05-06 17:48 | 45.46111 | 1.38015 | 34909 ft | 463 kts | 169° |
| 2026-05-06 17:49 | 45.39833 | 1.40035 | 34910 ft | 462 kts | 169° |
| 2026-05-06 17:49 | 45.33554 | 1.42050 | 34911 ft | 462 kts | 169° |
| 2026-05-06 17:50 | 45.27325 | 1.44045 | 34911 ft | 462 kts | 169° |
| 2026-05-06 17:50 | 45.21050 | 1.46050 | 34912 ft | 462 kts | 169° |
| 2026-05-06 17:51 | 45.14780 | 1.48049 | 34918 ft | 462 kts | 169° |
| 2026-05-06 17:51 | 45.08514 | 1.50057 | 34920 ft | 462 kts | 169° |
| 2026-05-06 17:52 | 45.02252 | 1.52056 | 34920 ft | 461 kts | 169° |
| 2026-05-06 17:52 | 44.96029 | 1.54035 | 34921 ft | 461 kts | 170° |
| 2026-05-06 17:53 | 44.89774 | 1.56018 | 34922 ft | 461 kts | 170° |
| 2026-05-06 17:53 | 44.83522 | 1.57996 | 34929 ft | 460 kts | 170° |
| 2026-05-06 17:54 | 44.77274 | 1.59967 | 34937 ft | 460 kts | 170° |
| 2026-05-06 17:54 | 44.71075 | 1.61919 | 34939 ft | 459 kts | 170° |
| 2026-05-06 17:55 | 44.64839 | 1.63878 | 34941 ft | 459 kts | 171° |
| 2026-05-06 17:55 | 44.58617 | 1.65834 | 34943 ft | 458 kts | 171° |
| 2026-05-06 17:56 | 44.52394 | 1.67785 | 34945 ft | 458 kts | 171° |
| 2026-05-06 17:56 | 44.46221 | 1.69710 | 34947 ft | 457 kts | 171° |
| 2026-05-06 17:57 | 44.40013 | 1.71640 | 34949 ft | 457 kts | 171° |
| 2026-05-06 17:57 | 44.33808 | 1.73564 | 34957 ft | 456 kts | 171° |
| 2026-05-06 17:58 | 44.27653 | 1.75414 | 34964 ft | 455 kts | 173° |
| 2026-05-06 17:58 | 44.21417 | 1.76770 | 34965 ft | 453 kts | 175° |
| 2026-05-06 17:59 | 44.15177 | 1.78091 | 34968 ft | 453 kts | 175° |
| 2026-05-06 17:59 | 44.08945 | 1.79441 | 34971 ft | 453 kts | 175° |
| 2026-05-06 18:00 | 44.02715 | 1.80800 | 34972 ft | 453 kts | 175° |
| 2026-05-06 18:00 | 43.96535 | 1.82151 | 34973 ft | 452 kts | 175° |
| 2026-05-06 18:01 | 43.90298 | 1.83064 | 34974 ft | 450 kts | 180° |
| 2026-05-06 18:01 | 43.84056 | 1.83587 | 34975 ft | 449 kts | 180° |
| 2026-05-06 18:02 | 43.77813 | 1.84146 | 34976 ft | 450 kts | 180° |
| 2026-05-06 18:02 | 43.71607 | 1.84726 | 34977 ft | 450 kts | 180° |
| 2026-05-06 18:03 | 43.65362 | 1.85323 | 34978 ft | 450 kts | 180° |
| 2026-05-06 18:03 | 43.59118 | 1.85927 | 34980 ft | 450 kts | 180° |
| 2026-05-06 18:04 | 43.52879 | 1.86528 | 34979 ft | 449 kts | 180° |
| 2026-05-06 18:04 | 43.46645 | 1.87126 | 34978 ft | 449 kts | 180° |
| 2026-05-06 18:05 | 43.40453 | 1.87720 | 34977 ft | 449 kts | 180° |
| 2026-05-06 18:05 | 43.34219 | 1.88317 | 34976 ft | 449 kts | 180° |
| 2026-05-06 18:06 | 43.27994 | 1.88916 | 34975 ft | 448 kts | 180° |
| 2026-05-06 18:06 | 43.21774 | 1.89512 | 34973 ft | 448 kts | 180° |
| 2026-05-06 18:07 | 43.15607 | 1.90103 | 34964 ft | 447 kts | 181° |
| 2026-05-06 18:07 | 43.09405 | 1.90696 | 34960 ft | 447 kts | 181° |
| 2026-05-06 18:08 | 43.03205 | 1.91287 | 34959 ft | 446 kts | 181° |
| 2026-05-06 18:08 | 42.97011 | 1.91881 | 34958 ft | 446 kts | 181° |
| 2026-05-06 18:09 | 42.90871 | 1.92469 | 34957 ft | 444 kts | 181° |
| 2026-05-06 18:09 | 42.84706 | 1.93055 | 34956 ft | 444 kts | 181° |
| 2026-05-06 18:10 | 42.78550 | 1.93638 | 34954 ft | 443 kts | 181° |
| 2026-05-06 18:10 | 42.72404 | 1.94218 | 34952 ft | 442 kts | 182° |
| 2026-05-06 18:11 | 42.66268 | 1.95159 | 34954 ft | 448 kts | 174° |
| 2026-05-06 18:11 | 42.60251 | 1.97227 | 34952 ft | 449 kts | 171° |
| 2026-05-06 18:12 | 42.54214 | 1.99424 | 34951 ft | 449 kts | 172° |
| 2026-05-06 18:12 | 42.48184 | 2.01599 | 34948 ft | 447 kts | 172° |
| 2026-05-06 18:13 | 42.42188 | 2.03752 | 34947 ft | 446 kts | 172° |
| 2026-05-06 18:13 | 42.36226 | 2.05890 | 34945 ft | 447 kts | 172° |
| 2026-05-06 18:14 | 42.30215 | 2.08022 | 34938 ft | 446 kts | 172° |
| 2026-05-06 18:14 | 42.24205 | 2.10150 | 34938 ft | 446 kts | 172° |
| 2026-05-06 18:15 | 42.18196 | 2.12273 | 34937 ft | 446 kts | 172° |
| 2026-05-06 18:15 | 42.12232 | 2.14377 | 34936 ft | 446 kts | 172° |
| 2026-05-06 18:16 | 42.06227 | 2.16501 | 34936 ft | 446 kts | 172° |
| 2026-05-06 18:16 | 42.00223 | 2.18627 | 34936 ft | 446 kts | 172° |
| 2026-05-06 18:17 | 41.94212 | 2.20742 | 34943 ft | 448 kts | 173° |
| 2026-05-06 18:17 | 41.88194 | 2.22849 | 34950 ft | 450 kts | 173° |
| 2026-05-06 18:18 | 41.82141 | 2.24965 | 34948 ft | 449 kts | 173° |
| 2026-05-06 18:18 | 41.76090 | 2.27077 | 34946 ft | 449 kts | 173° |
| 2026-05-06 18:19 | 41.70041 | 2.29186 | 34943 ft | 449 kts | 173° |
| 2026-05-06 18:19 | 41.64038 | 2.31273 | 34941 ft | 449 kts | 173° |
| 2026-05-06 18:20 | 41.58005 | 2.33367 | 34940 ft | 448 kts | 173° |
| 2026-05-06 18:20 | 41.51972 | 2.35457 | 34939 ft | 448 kts | 173° |
| 2026-05-06 18:21 | 41.45944 | 2.37542 | 34938 ft | 447 kts | 173° |
| 2026-05-06 18:21 | 41.39916 | 2.39632 | 34938 ft | 448 kts | 173° |
| 2026-05-06 18:22 | 41.33934 | 2.41705 | 34938 ft | 447 kts | 173° |
| 2026-05-06 18:22 | 41.27910 | 2.43785 | 34938 ft | 447 kts | 173° |
| 2026-05-06 18:23 | 41.21887 | 2.45859 | 34939 ft | 447 kts | 173° |
| 2026-05-06 18:23 | 41.15867 | 2.47927 | 34939 ft | 447 kts | 173° |
| 2026-05-06 18:24 | 41.09851 | 2.49990 | 34939 ft | 447 kts | 173° |
| 2026-05-06 18:24 | 41.03832 | 2.52049 | 34940 ft | 447 kts | 173° |
| 2026-05-06 18:25 | 41.00864 | 2.53063 | 34764 ft | 447 kts | 173° |
| 2026-05-06 18:25 | 40.97866 | 2.54087 | 34181 ft | 443 kts | 174° |
| 2026-05-06 18:25 | 40.94880 | 2.55105 | 33455 ft | 444 kts | 174° |
| 2026-05-06 18:25 | 40.91888 | 2.56124 | 32722 ft | 444 kts | 174° |
| 2026-05-06 18:26 | 40.88890 | 2.57144 | 31976 ft | 445 kts | 173° |
| 2026-05-06 18:26 | 40.85889 | 2.58165 | 31219 ft | 446 kts | 173° |
| 2026-05-06 18:26 | 40.82883 | 2.59186 | 30445 ft | 446 kts | 173° |
| 2026-05-06 18:26 | 40.79871 | 2.60212 | 29655 ft | 447 kts | 173° |
| 2026-05-06 18:27 | 40.76857 | 2.61239 | 28862 ft | 448 kts | 173° |
| 2026-05-06 18:27 | 40.73841 | 2.62262 | 28053 ft | 448 kts | 172° |
| 2026-05-06 18:27 | 40.70815 | 2.63286 | 27222 ft | 449 kts | 172° |
| 2026-05-06 18:27 | 40.67827 | 2.64296 | 26379 ft | 450 kts | 172° |
| 2026-05-06 18:28 | 40.64787 | 2.65322 | 25593 ft | 450 kts | 171° |
| 2026-05-06 18:28 | 40.61765 | 2.66341 | 24930 ft | 446 kts | 171° |
| 2026-05-06 18:28 | 40.58770 | 2.67349 | 24271 ft | 443 kts | 171° |
| 2026-05-06 18:28 | 40.55793 | 2.68351 | 23612 ft | 440 kts | 171° |
| 2026-05-06 18:29 | 40.52838 | 2.69374 | 22953 ft | 439 kts | 169° |
| 2026-05-06 18:29 | 40.49948 | 2.70677 | 22296 ft | 440 kts | 163° |
| 2026-05-06 18:29 | 40.47157 | 2.72343 | 21641 ft | 441 kts | 158° |
| 2026-05-06 18:29 | 40.44451 | 2.74239 | 20987 ft | 440 kts | 155° |
| 2026-05-06 18:30 | 40.41786 | 2.76202 | 20332 ft | 438 kts | 155° |
| 2026-05-06 18:30 | 40.39166 | 2.78121 | 19689 ft | 436 kts | 155° |
| 2026-05-06 18:30 | 40.36518 | 2.80047 | 19037 ft | 434 kts | 155° |
| 2026-05-06 18:30 | 40.33881 | 2.81955 | 18421 ft | 432 kts | 155° |
| 2026-05-06 18:31 | 40.31285 | 2.83829 | 18191 ft | 419 kts | 155° |
| 2026-05-06 18:31 | 40.28776 | 2.85636 | 18088 ft | 404 kts | 155° |
| 2026-05-06 18:31 | 40.26346 | 2.87383 | 18024 ft | 396 kts | 155° |
| 2026-05-06 18:31 | 40.23939 | 2.89112 | 17957 ft | 391 kts | 155° |
| 2026-05-06 18:32 | 40.21579 | 2.90808 | 17943 ft | 384 kts | 156° |
| 2026-05-06 18:32 | 40.19118 | 2.91946 | 17925 ft | 369 kts | 177° |
| 2026-05-06 18:32 | 40.16630 | 2.91697 | 17938 ft | 356 kts | 200° |
| 2026-05-06 18:32 | 40.14402 | 2.90466 | 17941 ft | 351 kts | 213° |
| 2026-05-06 18:33 | 40.12365 | 2.88722 | 17945 ft | 352 kts | 216° |
| 2026-05-06 18:33 | 40.10315 | 2.86981 | 17941 ft | 351 kts | 217° |
| 2026-05-06 18:33 | 40.08266 | 2.85212 | 17768 ft | 356 kts | 217° |
| 2026-05-06 18:33 | 40.06198 | 2.83431 | 17315 ft | 355 kts | 216° |
| 2026-05-06 18:34 | 40.04143 | 2.81661 | 16866 ft | 354 kts | 216° |
| 2026-05-06 18:34 | 40.02090 | 2.79896 | 16414 ft | 352 kts | 216° |
| 2026-05-06 18:34 | 40.00056 | 2.78147 | 15978 ft | 349 kts | 216° |
| 2026-05-06 18:34 | 39.98040 | 2.76416 | 15552 ft | 346 kts | 216° |
| 2026-05-06 18:35 | 39.96037 | 2.74696 | 15126 ft | 343 kts | 216° |
| 2026-05-06 18:35 | 39.94049 | 2.72991 | 14705 ft | 341 kts | 216° |
| 2026-05-06 18:35 | 39.92074 | 2.71299 | 14258 ft | 339 kts | 216° |
| 2026-05-06 18:35 | 39.90132 | 2.69635 | 13813 ft | 338 kts | 216° |
| 2026-05-06 18:36 | 39.88167 | 2.67953 | 13363 ft | 337 kts | 216° |
| 2026-05-06 18:36 | 39.86213 | 2.66276 | 12912 ft | 336 kts | 216° |
| 2026-05-06 18:36 | 39.84262 | 2.64596 | 12462 ft | 336 kts | 216° |
| 2026-05-06 18:36 | 39.82316 | 2.62922 | 12010 ft | 335 kts | 216° |
| 2026-05-06 18:37 | 39.80377 | 2.61246 | 11560 ft | 334 kts | 215° |
| 2026-05-06 18:37 | 39.79096 | 2.60142 | 11262 ft | 334 kts | 215° |
| 2026-05-06 18:37 | 39.76503 | 2.57917 | 10659 ft | 333 kts | 215° |
| 2026-05-06 18:37 | 39.74566 | 2.56261 | 10208 ft | 333 kts | 214° |
| 2026-05-06 18:38 | 39.72631 | 2.54609 | 9757 ft | 333 kts | 214° |
| 2026-05-06 18:38 | 39.70699 | 2.52962 | 9307 ft | 332 kts | 214° |
| 2026-05-06 18:38 | 39.68800 | 2.51346 | 8869 ft | 327 kts | 214° |
| 2026-05-06 18:38 | 39.66919 | 2.49747 | 8486 ft | 321 kts | 214° |
| 2026-05-06 18:39 | 39.65057 | 2.48166 | 8111 ft | 319 kts | 214° |
| 2026-05-06 18:39 | 39.63202 | 2.46588 | 7735 ft | 318 kts | 214° |
| 2026-05-06 18:39 | 39.61362 | 2.45020 | 7384 ft | 316 kts | 214° |
| 2026-05-06 18:40 | 39.57732 | 2.41935 | 6678 ft | 305 kts | 214° |
| 2026-05-06 18:40 | 39.55972 | 2.40451 | 6329 ft | 301 kts | 212° |
| 2026-05-06 18:40 | 39.54147 | 2.39274 | 5979 ft | 294 kts | 203° |
| 2026-05-06 18:40 | 39.52263 | 2.38340 | 5628 ft | 287 kts | 201° |
| 2026-05-06 18:41 | 39.50414 | 2.37445 | 5279 ft | 282 kts | 201° |
| 2026-05-06 18:41 | 39.48580 | 2.36580 | 5068 ft | 276 kts | 195° |
| 2026-05-06 18:41 | 39.46711 | 2.36579 | 4897 ft | 269 kts | 163° |
| 2026-05-06 18:41 | 39.45176 | 2.37861 | 4681 ft | 264 kts | 130° |
| 2026-05-06 18:42 | 39.44446 | 2.39974 | 4472 ft | 258 kts | 100° |
| 2026-05-06 18:42 | 39.44305 | 2.42263 | 4237 ft | 254 kts | 92° |
| 2026-05-06 18:42 | 39.44271 | 2.44534 | 3986 ft | 251 kts | 91° |
| 2026-05-06 18:42 | 39.44246 | 2.46782 | 3735 ft | 248 kts | 91° |
| 2026-05-06 18:43 | 39.44340 | 2.48959 | 3475 ft | 246 kts | 76° |
| 2026-05-06 18:43 | 39.45040 | 2.50943 | 3265 ft | 241 kts | 59° |
| 2026-05-06 18:43 | 39.45955 | 2.52733 | 3042 ft | 235 kts | 57° |
| 2026-05-06 18:43 | 39.46820 | 2.54462 | 2919 ft | 223 kts | 58° |
| 2026-05-06 18:44 | 39.47632 | 2.56143 | 2642 ft | 217 kts | 58° |
| 2026-05-06 18:44 | 39.48415 | 2.57782 | 2358 ft | 212 kts | 58° |
| 2026-05-06 18:44 | 39.49174 | 2.59378 | 2082 ft | 205 kts | 58° |
| 2026-05-06 18:44 | 39.49894 | 2.60896 | 1823 ft | 191 kts | 58° |
| 2026-05-06 18:45 | 39.50564 | 2.62310 | 1565 ft | 178 kts | 58° |
| 2026-05-06 18:45 | 39.51190 | 2.63632 | 1355 ft | 165 kts | 58° |
| 2026-05-06 18:45 | 39.51777 | 2.64870 | 1132 ft | 158 kts | 58° |
| 2026-05-06 18:45 | 39.52156 | 2.65669 | 991 ft | 156 kts | 57° |
| 2026-05-06 18:46 | 39.52896 | 2.67234 | 721 ft | 152 kts | 57° |
| 2026-05-06 18:46 | 39.53445 | 2.68393 | 516 ft | 150 kts | 57° |
| 2026-05-06 18:46 | 39.53993 | 2.69546 | 306 ft | 150 kts | 57° |
| 2026-05-06 18:46 | 39.54536 | 2.70693 | 119 ft | 149 kts | 57° |
| 2026-05-06 18:47 | 39.55067 | 2.71823 | 33 ft | 139 kts | 57° |
| 2026-05-06 18:47 | 39.55463 | 2.72655 | 32 ft | 78 kts | 58° |
| 2026-05-06 18:47 | 39.55662 | 2.73076 | 32 ft | 33 kts | 59° |
| 2026-05-06 18:47 | 39.55712 | 2.73299 | 32 ft | 18 kts | 88° |
| 2026-05-06 18:48 | 39.55699 | 2.73430 | 32 ft | 12 kts | 134° |
| 2026-05-06 18:48 | 39.55636 | 2.73467 | 32 ft | 11 kts | 215° |
| 2026-05-06 18:48 | 39.55585 | 2.73367 | 32 ft | 16 kts | 238° |
| 2026-05-06 18:48 | 39.55536 | 2.73262 | 32 ft | 13 kts | 240° |
| 2026-05-06 18:49 | 39.55476 | 2.73128 | 32 ft | 22 kts | 238° |
| 2026-05-06 18:49 | 39.55399 | 2.72964 | 32 ft | 19 kts | 239° |
| 2026-05-06 18:49 | 39.55341 | 2.72840 | 32 ft | 13 kts | 239° |
| 2026-05-06 18:49 | 39.55287 | 2.72726 | 32 ft | 19 kts | 237° |
| 2026-05-06 18:50 | 39.55235 | 2.72620 | 32 ft | 22 kts | 238° |
| 2026-05-06 18:50 | 39.55123 | 2.72488 | 32 ft | 13 kts | 158° |
| 2026-05-06 18:50 | 39.55064 | 2.72529 | 32 ft | 8 kts | 148° |
| 2026-05-06 18:50 | 39.55046 | 2.72611 | 32 ft | 15 kts | 60° |
| 2026-05-06 18:51 | 39.55098 | 2.72726 | 32 ft | 13 kts | 60° |
| 2026-05-06 18:51 | 39.55079 | 2.72776 | 32 ft | 4 kts | 151° |
| 2026-05-06 18:51 | 39.55055 | 2.72793 | 32 ft | 2 kts | 150° |
| 2026-05-06 18:51 | 39.55052 | 2.72796 | 32 ft | 0 kts | 150° |